createdAt,value
2023-02-08T00:01:28.628Z,-3.81
2023-02-08T00:03:55.371Z,-3.71
2023-02-08T00:06:22.084Z,-3.60
2023-02-08T00:08:48.784Z,-3.63
2023-02-08T00:11:15.444Z,-3.59
2023-02-08T00:13:43.017Z,-3.38
2023-02-08T00:16:09.933Z,-3.51
2023-02-08T00:18:38.653Z,-3.36
2023-02-08T00:21:09.255Z,-3.39
2023-02-08T00:23:35.942Z,-3.34
2023-02-08T00:26:02.658Z,-3.30
2023-02-08T00:28:30.357Z,-3.21
2023-02-08T00:30:57.197Z,-3.49
2023-02-08T00:33:23.880Z,-3.49
2023-02-08T00:35:50.529Z,-3.60
2023-02-08T00:38:18.213Z,-3.32
2023-02-08T00:40:44.876Z,-3.07
2023-02-08T00:43:11.784Z,-2.95
2023-02-08T00:45:38.560Z,-3.23
2023-02-08T00:48:06.201Z,-3.27
2023-02-08T00:50:32.871Z,-3.80
2023-02-08T00:52:59.947Z,-3.26
2023-02-08T00:55:26.638Z,-3.26
2023-02-08T00:57:54.313Z,-3.60
2023-02-08T01:00:20.943Z,-3.72
2023-02-08T01:02:47.635Z,-3.50
2023-02-08T01:05:14.342Z,-3.48
2023-02-08T01:07:56.072Z,-3.99
2023-02-08T01:10:22.793Z,-3.54
2023-02-08T01:12:49.458Z,-3.76
2023-02-08T01:15:16.100Z,-4.03
2023-02-08T01:17:53.105Z,-3.86
2023-02-08T01:20:19.843Z,-3.99
2023-02-08T01:22:46.516Z,-4.04
2023-02-08T01:25:13.353Z,-3.99
2023-02-08T01:27:41.006Z,-3.57
2023-02-08T01:30:07.941Z,-3.76
2023-02-08T01:32:34.628Z,-3.45
2023-02-08T01:35:01.296Z,-3.72
2023-02-08T01:37:30.977Z,-3.64
2023-02-08T01:39:57.674Z,-3.34
2023-02-08T01:42:24.328Z,-3.41
2023-02-08T01:45:30.088Z,-3.44
2023-02-08T01:48:04.804Z,-3.44
2023-02-08T01:50:33.053Z,-3.31
2023-02-08T01:52:59.760Z,-3.36
2023-02-08T01:55:27.748Z,-3.26
2023-02-08T01:57:54.991Z,-3.24
2023-02-08T02:00:22.556Z,-2.98
2023-02-08T02:02:49.778Z,-3.20
2023-02-08T02:05:19.725Z,-3.15
2023-02-08T02:07:47.480Z,-3.23
2023-02-08T02:10:15.726Z,-3.01
2023-02-08T02:12:42.551Z,-3.23
2023-02-08T02:15:09.826Z,-3.55
2023-02-08T02:17:51.834Z,-3.31
2023-02-08T02:20:29.326Z,-3.50
2023-02-08T02:23:34.718Z,-3.51
2023-02-08T02:26:27.321Z,-4.21
2023-02-08T02:28:54.997Z,-3.87
2023-02-08T02:31:27.584Z,-3.88
2023-02-08T02:34:13.079Z,-3.62
2023-02-08T02:36:45.725Z,-3.53
2023-02-08T02:39:15.830Z,-3.63
2023-02-08T02:42:06.437Z,-3.50
2023-02-08T02:44:33.068Z,-3.60
2023-02-08T02:47:08.172Z,-3.93
2023-02-08T02:49:42.747Z,-3.45
2023-02-08T02:52:13.056Z,-3.76
2023-02-08T02:54:58.270Z,-3.65
2023-02-08T02:57:28.345Z,-3.35
2023-02-08T02:59:55.038Z,-3.53
2023-02-08T03:02:21.773Z,-3.53
2023-02-08T03:04:49.473Z,-3.40
2023-02-08T03:07:22.880Z,-3.63
2023-02-08T03:09:49.528Z,-3.36
2023-02-08T03:12:19.372Z,-3.29
2023-02-08T03:14:52.900Z,-3.44
2023-02-08T03:17:25.239Z,-3.52
2023-02-08T03:20:01.137Z,-3.57
2023-02-08T03:22:32.704Z,-3.48
2023-02-08T03:25:03.458Z,-3.09
2023-02-08T03:27:40.908Z,-2.66
2023-02-08T03:30:10.615Z,-2.71
2023-02-08T03:32:47.503Z,-2.68
2023-02-08T03:35:15.904Z,-2.77
2023-02-08T03:37:49.240Z,-2.86
2023-02-08T03:40:23.378Z,-2.76
2023-02-08T03:42:50.349Z,-2.72
2023-02-08T03:45:18.709Z,-3.29
2023-02-08T03:47:51.716Z,-3.03
2023-02-08T03:50:18.514Z,-3.26
2023-02-08T03:52:46.110Z,-2.68
2023-02-08T03:55:14.290Z,-2.93
2023-02-08T03:57:48.270Z,-2.95
2023-02-08T04:00:15.348Z,-2.71
2023-02-08T04:02:50.195Z,-2.75
2023-02-08T04:05:16.917Z,-2.93
2023-02-08T04:07:46.762Z,-3.01
2023-02-08T04:10:13.410Z,-3.04
2023-02-08T04:12:40.026Z,-2.99
2023-02-08T04:15:06.926Z,-2.82
2023-02-08T04:17:34.576Z,-2.67
2023-02-08T04:20:01.237Z,-2.47
2023-02-08T04:22:27.926Z,-2.76
2023-02-08T04:24:54.578Z,-2.81
2023-02-08T04:27:21.236Z,-3.19
2023-02-08T04:29:47.948Z,-3.76
2023-02-08T04:32:14.656Z,-3.17
2023-02-08T04:34:41.325Z,-2.62
2023-02-08T04:37:15.146Z,-2.58
2023-02-08T04:39:41.799Z,-2.53
2023-02-08T04:42:08.645Z,-2.38
2023-02-08T04:44:35.335Z,-2.24
2023-02-08T04:47:08.065Z,-1.75
2023-02-08T04:49:34.781Z,-1.78
2023-02-08T04:52:01.410Z,-1.92
2023-02-08T04:54:28.266Z,-1.58
2023-02-08T04:56:54.949Z,-1.98
2023-02-08T04:59:21.645Z,-1.45
2023-02-08T05:01:48.516Z,-1.63
2023-02-08T05:04:15.192Z,-1.84
2023-02-08T05:06:41.884Z,-1.61
2023-02-08T05:09:17.718Z,-1.61
2023-02-08T05:11:44.374Z,-1.24
2023-02-08T05:14:11.099Z,-1.07
2023-02-08T05:16:37.773Z,-1.31
2023-02-08T05:19:10.716Z,-1.64
2023-02-08T05:21:37.367Z,-1.67
2023-02-08T05:24:04.025Z,-1.73
2023-02-08T05:26:30.709Z,-1.80
2023-02-08T05:28:57.396Z,-1.66
2023-02-08T05:31:24.722Z,-1.59
2023-02-08T05:33:51.874Z,-1.48
2023-02-08T05:36:19.045Z,-1.89
2023-02-08T05:38:45.908Z,-1.54
2023-02-08T05:41:12.620Z,-1.24
2023-02-08T05:43:39.319Z,-0.87
2023-02-08T05:46:05.997Z,-0.44
2023-02-08T05:48:32.749Z,-0.82
2023-02-08T05:50:59.715Z,-0.87
2023-02-08T05:53:26.361Z,-0.99
2023-02-08T05:55:53.278Z,-0.88
2023-02-08T05:58:21.935Z,-0.82
2023-02-08T06:00:48.590Z,-0.48
2023-02-08T06:03:15.319Z,-0.33
2023-02-08T06:05:42.090Z,-0.92
2023-02-08T06:08:13.910Z,-1.02
2023-02-08T06:10:40.889Z,-1.26
2023-02-08T06:13:07.623Z,-1.01
2023-02-08T06:15:34.278Z,-0.95
2023-02-08T06:18:09.319Z,-0.95
2023-02-08T06:20:36.075Z,-0.36
2023-02-08T06:23:02.920Z,-0.55
2023-02-08T06:25:29.572Z,-0.39
2023-02-08T06:27:57.514Z,-0.57
2023-02-08T06:30:24.365Z,-0.35
2023-02-08T06:32:51.109Z,-0.39
2023-02-08T06:35:17.855Z,-0.34
2023-02-08T06:37:48.654Z,-0.20
2023-02-08T06:40:15.355Z,-0.28
2023-02-08T06:42:43.199Z,-0.40
2023-02-08T06:45:12.049Z,-0.26
2023-02-08T06:47:41.187Z,-0.14
2023-02-08T06:50:08.089Z,0.06
2023-02-08T06:52:34.872Z,-0.18
2023-02-08T06:55:01.560Z,0.15
2023-02-08T06:57:29.222Z,-0.03
2023-02-08T06:59:55.877Z,0.38
2023-02-08T07:02:22.733Z,0.49
2023-02-08T07:04:49.484Z,0.18
2023-02-08T07:10:26.596Z,0.26
2023-02-08T07:12:53.318Z,0.43
2023-02-08T07:15:19.957Z,0.32
2023-02-08T07:17:46.725Z,-0.12
2023-02-08T07:20:13.397Z,0.06
2023-02-08T07:22:40.252Z,-0.01
2023-02-08T07:25:07.497Z,-0.04
2023-02-08T07:27:34.182Z,-0.32
2023-02-08T07:30:00.837Z,-0.27
2023-02-08T07:32:27.538Z,0.01
2023-02-08T07:34:56.830Z,-0.38
2023-02-08T07:37:23.756Z,-0.73
2023-02-08T07:39:50.392Z,-1.20
2023-02-08T07:42:17.066Z,-1.19
2023-02-08T07:44:43.751Z,-1.17
2023-02-08T07:47:10.970Z,-0.48
2023-02-08T07:49:37.684Z,-0.34
2023-02-08T07:52:04.636Z,-0.16
2023-02-08T07:54:31.342Z,-0.13
2023-02-08T07:56:58.316Z,0.35
2023-02-08T07:59:25.067Z,0.91
2023-02-08T08:01:51.778Z,1.26
2023-02-08T08:04:20.030Z,1.33
2023-02-08T08:06:47.117Z,0.88
2023-02-08T08:09:15.548Z,0.77
2023-02-08T08:11:42.282Z,0.51
2023-02-08T08:14:10.264Z,0.67
2023-02-08T08:16:37.030Z,0.54
2023-02-08T08:19:03.740Z,-0.09
2023-02-08T08:21:30.420Z,0.25
2023-02-08T08:23:57.156Z,0.60
2023-02-08T08:26:23.845Z,0.39
2023-02-08T08:28:50.600Z,0.28
2023-02-08T08:31:18.677Z,0.02
2023-02-08T08:33:45.838Z,-0.03
2023-02-08T08:36:12.742Z,-0.12
2023-02-08T08:38:39.528Z,0.02
2023-02-08T08:41:12.826Z,0.17
2023-02-08T08:43:39.545Z,0.31
2023-02-08T08:46:06.964Z,0.47
2023-02-08T08:48:34.513Z,0.33
2023-02-08T08:51:01.417Z,0.29
2023-02-08T08:53:28.105Z,0.59
2023-02-08T08:55:54.770Z,0.98
2023-02-08T08:58:21.464Z,0.53
2023-02-08T09:00:48.153Z,0.53
2023-02-08T09:03:14.923Z,0.79
2023-02-08T09:05:41.701Z,0.78
2023-02-08T09:08:08.428Z,0.73
2023-02-08T09:10:35.544Z,0.45
2023-02-08T09:13:02.317Z,0.69
2023-02-08T09:15:29.112Z,0.36
2023-02-08T09:17:55.826Z,0.67
2023-02-08T09:20:22.527Z,0.91
2023-02-08T09:22:49.187Z,0.98
2023-02-08T09:25:18.114Z,0.89
2023-02-08T09:27:44.794Z,1.04
2023-02-08T09:30:11.614Z,0.97
2023-02-08T09:32:40.016Z,0.74
2023-02-08T09:35:07.391Z,0.95
2023-02-08T09:37:34.140Z,1.05
2023-02-08T09:40:01.844Z,1.28
2023-02-08T09:42:44.110Z,1.16
2023-02-08T09:45:20.005Z,1.18
2023-02-08T09:47:55.433Z,1.27
2023-02-08T09:50:32.796Z,1.54
2023-02-08T09:53:04.631Z,1.64
2023-02-08T09:55:42.314Z,2.00
2023-02-08T09:58:27.701Z,1.72
2023-02-08T10:00:55.201Z,1.73
2023-02-08T10:03:30.687Z,1.85
2023-02-08T10:05:57.402Z,2.16
2023-02-08T10:08:34.530Z,2.38
2023-02-08T10:11:07.413Z,2.39
2023-02-08T10:13:43.443Z,3.11
2023-02-08T10:16:16.531Z,2.94
2023-02-08T10:18:47.277Z,2.84
2023-02-08T10:21:33.353Z,3.22
2023-02-08T10:24:06.238Z,3.31
2023-02-08T10:26:42.110Z,3.18
2023-02-08T10:29:27.448Z,3.03
2023-02-08T10:32:00.062Z,3.29
2023-02-08T10:34:39.086Z,3.72
2023-02-08T10:37:13.356Z,3.48
2023-02-08T10:39:40.260Z,2.82
2023-02-08T10:42:11.367Z,2.77
2023-02-08T10:44:51.163Z,2.89
2023-02-08T10:47:32.967Z,3.21
2023-02-08T10:50:09.511Z,3.32
2023-02-08T10:52:36.223Z,3.03
2023-02-08T10:55:03.184Z,3.29
2023-02-08T10:57:31.337Z,2.99
2023-02-08T11:00:09.783Z,2.65
2023-02-08T11:02:39.985Z,2.40
2023-02-08T11:05:08.273Z,2.38
2023-02-08T11:07:36.612Z,1.93
2023-02-08T11:10:19.102Z,2.53
2023-02-08T11:13:10.115Z,2.00
2023-02-08T11:21:42.458Z,1.98
2023-02-08T11:24:15.192Z,2.21
2023-02-08T11:39:09.913Z,1.84
2023-02-08T11:54:23.991Z,2.39
2023-02-08T11:57:12.837Z,2.46
2023-02-08T12:06:11.653Z,2.86
2023-02-08T12:08:38.397Z,3.35
2023-02-08T12:11:09.943Z,3.35
2023-02-08T12:13:55.718Z,4.47
2023-02-08T12:16:26.551Z,4.87
2023-02-08T12:19:06.562Z,5.54
2023-02-08T12:21:50.937Z,5.73
2023-02-08T12:31:18.125Z,4.19
2023-02-08T12:43:47.055Z,3.99
2023-02-08T12:46:14.280Z,3.48
2023-02-08T12:49:00.200Z,3.09
2023-02-08T12:51:26.903Z,2.76
2023-02-08T12:54:00.576Z,2.53
2023-02-08T12:56:28.370Z,2.41
2023-02-08T12:59:01.952Z,2.06
2023-02-08T13:01:36.619Z,2.25
2023-02-08T13:04:17.362Z,2.55
2023-02-08T13:06:45.550Z,3.16
2023-02-08T13:09:19.461Z,3.31
2023-02-08T13:11:49.008Z,3.78
2023-02-08T13:14:35.074Z,4.06
2023-02-08T13:17:05.705Z,3.94
2023-02-08T13:19:59.643Z,3.75
2023-02-08T13:22:27.079Z,3.74
2023-02-08T13:25:06.234Z,4.03
2023-02-08T13:27:37.737Z,3.93
2023-02-08T13:30:04.599Z,3.60
2023-02-08T13:32:31.649Z,3.92
2023-02-08T13:34:59.937Z,3.90
2023-02-08T13:37:30.253Z,3.80
2023-02-08T13:40:06.034Z,4.02
2023-02-08T13:42:40.244Z,3.83
2023-02-08T13:45:07.164Z,3.89
2023-02-08T13:47:44.088Z,3.67
2023-02-08T13:50:29.496Z,3.30
2023-02-08T13:52:56.237Z,3.26
2023-02-08T13:55:29.036Z,3.01
2023-02-08T13:57:56.724Z,2.96
2023-02-08T14:00:24.903Z,3.25
2023-02-08T14:02:58.811Z,3.70
2023-02-08T14:05:34.696Z,3.44
2023-02-08T14:08:01.890Z,4.11
2023-02-08T14:10:32.167Z,4.09
2023-02-08T14:13:04.228Z,4.27
2023-02-08T14:15:31.869Z,4.22
2023-02-08T14:17:59.936Z,3.82
2023-02-08T14:20:27.278Z,3.85
2023-02-08T14:22:56.583Z,3.71
2023-02-08T14:25:24.722Z,3.39
2023-02-08T14:27:52.915Z,3.32
2023-02-08T14:30:19.649Z,3.40
2023-02-08T14:32:50.895Z,3.54
2023-02-08T14:35:20.908Z,3.27
2023-02-08T14:37:48.818Z,3.08
2023-02-08T14:40:25.114Z,3.15
2023-02-08T14:43:10.473Z,2.75
2023-02-08T14:45:38.018Z,3.09
2023-02-08T14:48:16.890Z,2.99
2023-02-08T14:50:54.889Z,3.10
2023-02-08T14:53:24.474Z,3.18
2023-02-08T14:55:52.863Z,3.01
2023-02-08T14:58:26.071Z,2.70
2023-02-08T15:00:52.833Z,2.71
2023-02-08T15:03:19.666Z,2.52
2023-02-08T15:06:03.787Z,2.26
2023-02-08T15:08:30.547Z,2.21
2023-02-08T15:10:57.222Z,2.33
2023-02-08T15:13:26.794Z,2.30
2023-02-08T15:15:56.820Z,2.15
2023-02-08T15:18:24.380Z,2.05
2023-02-08T15:20:59.913Z,1.95
2023-02-08T15:23:26.721Z,2.18
2023-02-08T15:26:03.659Z,2.13
2023-02-08T15:28:31.296Z,2.11
2023-02-08T15:30:58.029Z,2.30
2023-02-08T15:33:25.539Z,2.31
2023-02-08T15:35:58.157Z,2.20
2023-02-08T15:38:24.852Z,2.29
2023-02-08T15:41:03.978Z,1.94
2023-02-08T15:43:30.917Z,2.26
2023-02-08T15:46:02.318Z,2.29
2023-02-08T15:48:29.059Z,2.18
2023-02-08T15:50:56.255Z,1.98
2023-02-08T15:53:23.140Z,2.15
2023-02-08T15:55:52.996Z,2.17
2023-02-08T15:58:19.629Z,2.18
2023-02-08T16:00:47.440Z,1.99
2023-02-08T16:03:20.210Z,2.03
2023-02-08T16:05:50.782Z,2.09
2023-02-08T16:08:20.240Z,1.99
2023-02-08T16:10:47.321Z,2.01
2023-02-08T16:13:17.183Z,2.06
2023-02-08T16:15:45.261Z,2.00
2023-02-08T16:18:30.653Z,2.24
2023-02-08T16:20:58.173Z,2.19
2023-02-08T16:23:29.090Z,2.05
2023-02-08T16:25:55.739Z,1.75
2023-02-08T16:28:32.276Z,1.73
2023-02-08T16:31:02.121Z,1.92
2023-02-08T16:33:29.127Z,2.12
2023-02-08T16:36:02.174Z,1.71
2023-02-08T16:38:29.718Z,2.02
2023-02-08T16:41:12.333Z,1.95
2023-02-08T16:43:43.871Z,1.74
2023-02-08T16:46:10.718Z,1.86
2023-02-08T16:48:41.016Z,1.79
2023-02-08T16:51:09.737Z,1.78
2023-02-08T16:53:42.389Z,1.79
2023-02-08T16:56:09.694Z,1.71
2023-02-08T16:58:36.365Z,1.62
2023-02-08T17:01:03.116Z,1.70
2023-02-08T17:03:30.700Z,1.49
2023-02-08T17:05:57.479Z,1.52
2023-02-08T17:08:24.155Z,1.49
2023-02-08T17:10:52.822Z,1.53
2023-02-08T17:13:21.282Z,1.28
2023-02-08T17:15:48.853Z,1.15
2023-02-08T17:18:15.705Z,1.43
2023-02-08T17:20:42.728Z,1.11
2023-02-08T17:23:09.902Z,1.44
2023-02-08T17:25:36.632Z,1.53
2023-02-08T17:28:08.068Z,1.23
2023-02-08T17:30:34.759Z,1.02
2023-02-08T17:33:01.429Z,1.05
2023-02-08T17:35:28.981Z,1.42
2023-02-08T17:37:56.124Z,0.97
2023-02-08T17:40:23.936Z,0.96
2023-02-08T17:42:52.234Z,0.28
2023-02-08T17:45:18.910Z,0.63
2023-02-08T17:47:46.042Z,1.12
2023-02-08T17:50:13.249Z,1.30
2023-02-08T17:52:40.310Z,0.76
2023-02-08T17:55:07.561Z,0.63
2023-02-08T17:57:34.839Z,0.79
2023-02-08T18:00:01.850Z,1.18
2023-02-08T18:02:28.576Z,0.94
2023-02-08T18:04:55.369Z,1.02
2023-02-08T18:07:22.049Z,0.40
2023-02-08T18:09:48.731Z,0.34
2023-02-08T18:12:15.830Z,0.37
2023-02-08T18:14:42.478Z,0.43
2023-02-08T18:17:09.212Z,0.30
2023-02-08T18:19:35.886Z,0.07
2023-02-08T18:22:03.951Z,0.19
2023-02-08T18:24:31.257Z,0.15
2023-02-08T18:26:59.801Z,0.02
2023-02-08T18:29:26.750Z,-0.37
2023-02-08T18:31:53.619Z,-0.52
2023-02-08T18:34:20.513Z,0.02
2023-02-08T18:36:47.691Z,-0.39
2023-02-08T18:39:14.661Z,-0.63
2023-02-08T18:41:43.226Z,-0.38
2023-02-08T18:44:09.901Z,-0.56
2023-02-08T18:46:36.567Z,-0.57
2023-02-08T18:49:03.317Z,-0.45
2023-02-08T18:51:30.001Z,-0.62
2023-02-08T18:53:56.672Z,-1.24
2023-02-08T18:56:25.282Z,-0.90
2023-02-08T18:58:52.954Z,-0.84
2023-02-08T19:01:21.101Z,-0.19
2023-02-08T19:03:48.020Z,-0.24
2023-02-08T19:06:25.171Z,-0.88
2023-02-08T19:08:52.863Z,-0.25
2023-02-08T19:11:23.543Z,-0.63
2023-02-08T19:13:50.451Z,-0.60
2023-02-08T19:16:17.629Z,-0.36
2023-02-08T19:18:44.901Z,-0.26
2023-02-08T19:21:12.692Z,-0.30
2023-02-08T19:23:39.369Z,-0.61
2023-02-08T19:26:07.010Z,-0.23
2023-02-08T19:28:34.080Z,-0.31
2023-02-08T19:31:10.010Z,-0.62
2023-02-08T19:33:37.223Z,-1.09
2023-02-08T19:36:11.094Z,-1.33
2023-02-08T19:38:37.968Z,-1.02
2023-02-08T19:41:05.147Z,-0.84
2023-02-08T19:43:32.286Z,-0.99
2023-02-08T19:45:59.610Z,-1.54
2023-02-08T19:48:26.609Z,-1.56
2023-02-08T19:50:59.623Z,-1.36
2023-02-08T19:53:27.036Z,-1.21
2023-02-08T19:56:00.354Z,-1.21
2023-02-08T19:58:27.047Z,-1.05
2023-02-08T20:00:54.077Z,-1.06
2023-02-08T20:03:22.285Z,-1.42
2023-02-08T20:05:49.347Z,-1.57
2023-02-08T20:08:16.069Z,-1.41
2023-02-08T20:10:44.519Z,-1.31
2023-02-08T20:13:11.683Z,-1.43
2023-02-08T20:15:38.788Z,-1.83
2023-02-08T20:18:05.809Z,-1.73
2023-02-08T20:20:32.533Z,-1.83
2023-02-08T20:23:00.410Z,-1.57
2023-02-08T20:25:27.080Z,-1.75
2023-02-08T20:27:54.509Z,-1.66
2023-02-08T20:30:21.369Z,-1.62
2023-02-08T20:32:48.204Z,-1.88
2023-02-08T20:35:15.179Z,-2.05
2023-02-08T20:37:42.010Z,-2.54
2023-02-08T20:40:09.410Z,-2.49
2023-02-08T20:42:36.159Z,-1.95
2023-02-08T20:45:02.856Z,-1.93
2023-02-08T20:47:31.831Z,-2.74
2023-02-08T20:50:01.216Z,-2.76
2023-02-08T20:52:29.691Z,-2.86
2023-02-08T20:54:56.388Z,-2.46
2023-02-08T20:57:23.086Z,-2.32
2023-02-08T20:59:50.288Z,-2.19
2023-02-08T21:02:21.140Z,-2.35
2023-02-08T21:04:48.108Z,-2.36
2023-02-08T21:07:15.334Z,-2.25
2023-02-08T21:09:42.144Z,-2.79
2023-02-08T21:12:08.857Z,-2.63
2023-02-08T21:14:35.494Z,-2.58
2023-02-08T21:17:02.324Z,-2.38
2023-02-08T21:19:29.954Z,-2.92
2023-02-08T21:21:57.860Z,-3.09
2023-02-08T21:24:24.936Z,-2.47
2023-02-08T21:26:52.296Z,-2.30
2023-02-08T21:29:18.992Z,-2.22
2023-02-08T21:31:45.808Z,-2.14
2023-02-08T21:34:13.578Z,-2.21
2023-02-08T21:36:40.291Z,-2.75
2023-02-08T21:39:07.122Z,-3.01
2023-02-08T21:41:33.968Z,-3.75
2023-02-08T21:44:02.426Z,-3.18
2023-02-08T21:46:29.184Z,-2.67
2023-02-08T21:49:15.150Z,-2.42
2023-02-08T21:52:00.803Z,-2.52
2023-02-08T21:54:43.034Z,-2.93
2023-02-08T21:57:14.503Z,-2.54
2023-02-08T21:59:41.221Z,-2.51
2023-02-08T22:02:09.019Z,-2.81
2023-02-08T22:04:35.938Z,-2.87
2023-02-08T22:07:04.732Z,-2.87
2023-02-08T22:09:31.497Z,-2.66
2023-02-08T22:11:58.982Z,-2.79
2023-02-08T22:14:25.881Z,-2.84
2023-02-08T22:16:52.537Z,-3.03
2023-02-08T22:19:19.269Z,-2.75
2023-02-08T22:21:45.966Z,-2.95
2023-02-08T22:24:12.708Z,-2.95
2023-02-08T22:26:39.418Z,-3.05
2023-02-08T22:29:06.077Z,-2.67
2023-02-08T22:31:32.956Z,-3.14
2023-02-08T22:33:59.972Z,-3.00
2023-02-08T22:36:26.684Z,-3.11
2023-02-08T22:38:53.360Z,-2.70
2023-02-08T22:41:20.071Z,-2.74
2023-02-08T22:43:46.856Z,-3.07
2023-02-08T22:46:13.580Z,-3.16
2023-02-08T22:48:40.558Z,-3.28
2023-02-08T22:51:08.424Z,-3.03
2023-02-08T22:53:35.164Z,-3.16
2023-02-08T22:56:01.856Z,-3.36
2023-02-08T22:58:28.608Z,-3.57
2023-02-08T23:00:55.310Z,-3.27
2023-02-08T23:03:22.121Z,-3.59
2023-02-08T23:05:49.386Z,-3.78
2023-02-08T23:08:16.655Z,-3.74
2023-02-08T23:10:43.676Z,-3.36
2023-02-08T23:13:10.576Z,-3.06
2023-02-08T23:15:38.157Z,-3.36
2023-02-08T23:18:05.260Z,-3.11
2023-02-08T23:20:32.243Z,-3.20
2023-02-08T23:22:58.974Z,-3.38
2023-02-08T23:25:25.636Z,-3.60
2023-02-08T23:27:52.389Z,-3.87
2023-02-08T23:30:19.099Z,-3.83
2023-02-08T23:32:45.746Z,-3.29
2023-02-08T23:35:12.428Z,-3.62
2023-02-08T23:37:39.276Z,-3.66
2023-02-08T23:40:06.187Z,-3.24
2023-02-08T23:42:33.024Z,-3.50
2023-02-08T23:45:00.029Z,-3.40
2023-02-08T23:47:27.584Z,-3.32
2023-02-08T23:49:54.261Z,-4.07
2023-02-08T23:52:20.922Z,-3.65
2023-02-08T23:54:47.649Z,-4.17
2023-02-08T23:57:14.389Z,-4.09
2023-02-08T23:59:41.261Z,-3.91
